Time;durP1;ratioP1;P1;durP2;ratioP2;P2;SDS_P1;SDS_P2;PMS_P1;PMS_P2;Temp;Humidity;BMP_temperature;BMP_pressure;BME280_temperature;BME280_humidity;BME280_pressure;Samples;Min_cycle;Max_cycle;Signal;HPM_P1;HPM_P2
2023/05/02 00:03:15;;;;;;;9.32;5.07;;;19.90;84.50;;;;;;10565876;28;20104;-23
2023/05/02 00:08:18;;;;;;;9.95;3.78;;;19.90;84.20;;;;;;10559148;28;20407;-24
2023/05/02 00:13:20;;;;;;;7.22;4.70;;;18.60;81.20;;;;;;10561013;28;20142;-23
2023/05/02 00:18:23;;;;;;;8.50;4.55;;;19.40;90.10;;;;;;10564047;28;20075;-24
2023/05/02 00:23:26;;;;;;;5.88;3.92;;;19.80;81.90;;;;;;10558546;28;20048;-24
2023/05/02 00:28:28;;;;;;;9.48;5.13;;;19.20;86.60;;;;;;10566743;28;20118;-24
2023/05/02 00:33:30;;;;;;;5.97;2.97;;;19.20;89.40;;;;;;10563484;28;20047;-23
2023/05/02 00:38:33;;;;;;;6.75;4.30;;;19.80;81.90;;;;;;10574277;28;20126;-22
2023/05/02 00:43:35;;;;;;;9.32;4.50;;;19.50;85.60;;;;;;10561662;28;20102;-23
2023/05/02 00:48:37;;;;;;;6.43;3.20;;;20.30;80.40;;;;;;10564361;28;20051;-23
2023/05/02 00:53:40;;;;;;;6.75;4.03;;;19.20;78.70;;;;;;10583414;28;20052;-22
2023/05/02 00:58:44;;;;;;;6.03;2.90;;;18.80;90.80;;;;;;10578241;28;20480;-23
2023/05/02 01:03:56;;;;;;;6.32;2.80;;;18.80;90.60;;;;;;10571549;28;20051;-24
2023/05/02 01:09:12;;;;;;;8.40;3.20;;;18.80;90.60;;;;;;10562338;28;20089;-24
2023/05/02 01:14:14;;;;;;;8.75;4.45;;;19.80;79.90;;;;;;10576657;28;20079;-24
2023/05/02 01:19:25;;;;;;;6.05;2.13;;;19.90;80.40;;;;;;10575084;28;20124;-24
2023/05/02 01:24:34;;;;;;;7.15;2.95;;;19.20;75.30;;;;;;10583335;28;20043;-23
2023/05/02 01:29:39;;;;;;;7.50;3.20;;;19.90;78.30;;;;;;10566498;28;20131;-24
2023/05/02 01:34:45;;;;;;;5.25;3.60;;;19.80;72.70;;;;;;10575508;28;20508;-24
2023/05/02 01:39:49;;;;;;;6.57;4.20;;;20.00;77.40;;;;;;10570925;28;20176;-24
2023/05/02 01:44:55;;;;;;;13.20;2.67;;;20.80;71.60;;;;;;10580048;28;20090;-24
2023/05/02 01:49:58;;;;;;;6.53;2.22;;;19.80;75.90;;;;;;10578203;28;20495;-24
2023/05/02 01:55:03;;;;;;;8.55;3.00;;;20.70;71.90;;;;;;10586170;28;20086;-24
2023/05/02 02:00:09;;;;;;;6.80;3.30;;;20.20;75.00;;;;;;10573934;28;20050;-22
2023/05/02 02:05:13;;;;;;;6.20;3.33;;;20.50;73.60;;;;;;10571161;28;20469;-22
2023/05/02 02:10:15;;;;;;;6.60;3.60;;;20.50;74.00;;;;;;10574604;28;20137;-24
2023/05/02 02:15:25;;;;;;;6.40;3.78;;;20.60;73.00;;;;;;10565996;28;20056;-23
2023/05/02 02:20:29;;;;;;;6.15;3.78;;;20.80;71.10;;;;;;10573751;28;20134;-23
2023/05/02 02:25:32;;;;;;;5.40;2.65;;;21.00;69.20;;;;;;10567718;28;20130;-23
2023/05/02 02:30:35;;;;;;;6.63;2.42;;;20.30;72.30;;;;;;10573239;28;20054;-23
2023/05/02 02:35:42;;;;;;;5.43;3.10;;;20.30;70.50;;;;;;10573930;28;20083;-23
2023/05/02 02:40:50;;;;;;;4.07;2.85;;;20.90;70.60;;;;;;10574757;28;20050;-24
2023/05/02 02:46:03;;;;;;;4.32;2.85;;;20.70;71.20;;;;;;10561663;28;20092;-25
2023/05/02 02:51:12;;;;;;;6.18;2.95;;;20.30;68.80;;;;;;10558061;28;20040;-24
2023/05/02 02:56:19;;;;;;;4.72;2.08;;;21.20;68.10;;;;;;10557835;28;20055;-24
2023/05/02 03:01:24;;;;;;;7.75;3.10;;;20.80;66.10;;;;;;10562171;28;20135;-23
2023/05/02 03:06:26;;;;;;;4.63;1.55;;;20.70;68.20;;;;;;10562064;28;20054;-22
2023/05/02 03:11:28;;;;;;;5.25;3.10;;;20.20;67.80;;;;;;10566922;28;20044;-22
2023/05/02 03:16:35;;;;;;;5.32;2.28;;;20.80;69.60;;;;;;10574453;28;20571;-23
2023/05/02 03:21:37;;;;;;;7.10;1.55;;;21.10;67.20;;;;;;10570249;28;20768;-23
2023/05/02 03:26:38;;;;;;;3.53;2.63;;;21.10;65.10;;;;;;10569517;28;20134;-23
2023/05/02 03:31:42;;;;;;;5.38;2.55;;;21.00;67.20;;;;;;10560580;28;20063;-22
2023/05/02 03:36:43;;;;;;;3.72;1.70;;;21.20;66.10;;;;;;10556751;28;20142;-24
2023/05/02 03:41:45;;;;;;;6.18;1.67;;;20.00;62.70;;;;;;10559180;28;20059;-23
2023/05/02 03:46:49;;;;;;;4.40;2.17;;;20.40;68.60;;;;;;10563854;28;20104;-24
2023/05/02 03:51:51;;;;;;;3.60;2.05;;;20.70;66.70;;;;;;10573337;28;20040;-24
2023/05/02 03:56:53;;;;;;;4.55;2.70;;;21.00;66.10;;;;;;10562633;28;20043;-23
2023/05/02 04:01:56;;;;;;;6.28;2.38;;;21.00;66.70;;;;;;10569716;28;20039;-22
2023/05/02 04:06:58;;;;;;;4.45;2.10;;;20.80;64.20;;;;;;10551637;28;20071;-24
2023/05/02 04:12:00;;;;;;;2.85;1.67;;;20.60;67.60;;;;;;10564860;28;20048;-23
2023/05/02 04:17:04;;;;;;;4.85;2.67;;;20.70;67.20;;;;;;10556318;28;20047;-23
2023/05/02 04:22:06;;;;;;;4.97;2.50;;;20.30;68.40;;;;;;10565299;28;20043;-23
2023/05/02 04:27:07;;;;;;;5.30;2.25;;;20.80;65.50;;;;;;10560362;28;20044;-21
2023/05/02 04:32:11;;;;;;;4.43;1.92;;;20.10;65.30;;;;;;10545467;28;20114;-23
2023/05/02 04:37:13;;;;;;;2.47;1.70;;;19.40;71.60;;;;;;10561441;28;20047;-23
2023/05/02 04:42:15;;;;;;;;;;;20.40;67.60;;;;;;10550359;28;20465;-24
2023/05/02 04:47:18;;;;;;;7.22;2.00;;;20.10;67.50;;;;;;10556390;28;19919;-24
2023/05/02 04:52:20;;;;;;;3.53;1.77;;;19.10;73.30;;;;;;10565497;28;20115;-23
2023/05/02 04:57:22;;;;;;;4.22;1.58;;;19.40;70.30;;;;;;10559537;28;20044;-21
2023/05/02 05:06:06;;;;;;;4.80;1.90;;;20.30;68.50;;;;;;10549863;27;20115;-24
2023/05/02 05:11:07;;;;;;;3.42;1.30;;;19.20;65.40;;;;;;10572409;27;20096;-23
2023/05/02 05:16:09;;;;;;;6.75;1.60;;;20.30;68.80;;;;;;10563353;28;20097;-24
2023/05/02 05:21:12;;;;;;;15.40;2.65;;;20.50;66.60;;;;;;10559346;28;20044;-23
2023/05/02 05:26:16;;;;;;;5.72;1.83;;;18.60;68.00;;;;;;10550294;28;20547;-24
2023/05/02 05:31:18;;;;;;;3.20;1.35;;;19.20;72.80;;;;;;10550556;28;20123;-24
2023/05/02 05:36:21;;;;;;;2.97;1.45;;;19.90;59.20;;;;;;10570771;28;20044;-24
2023/05/02 05:41:24;;;;;;;3.47;1.70;;;19.90;69.20;;;;;;10549536;28;20044;-23
2023/05/02 05:46:25;;;;;;;6.65;1.42;;;20.40;67.40;;;;;;10548774;28;20048;-23
2023/05/02 05:51:29;;;;;;;3.97;1.60;;;20.60;65.80;;;;;;10556656;28;20408;-24
2023/05/02 05:56:30;;;;;;;3.90;1.50;;;20.40;62.80;;;;;;10556461;28;20576;-23
2023/05/02 06:01:32;;;;;;;2.97;1.23;;;20.20;67.10;;;;;;10554988;28;20478;-23
2023/05/02 06:06:36;;;;;;;4.07;1.70;;;20.70;64.90;;;;;;10559592;28;20047;-23
2023/05/02 06:11:38;;;;;;;7.30;1.50;;;20.70;64.50;;;;;;10563272;28;20097;-24
2023/05/02 06:16:40;;;;;;;3.80;1.70;;;18.90;63.50;;;;;;10538268;28;20047;-23
2023/05/02 06:21:43;;;;;;;3.42;1.70;;;19.90;67.80;;;;;;10526514;28;20044;-24
2023/05/02 06:26:46;;;;;;;4.40;1.60;;;20.30;66.50;;;;;;10514352;28;20086;-23
2023/05/02 06:31:49;;;;;;;;;;;20.80;64.60;;;;;;10529176;28;20051;-24
2023/05/02 06:36:56;;;;;;;4.95;0.98;;;19.20;61.10;;;;;;10524118;28;20355;-24
2023/05/02 06:41:58;;;;;;;2.42;1.10;;;19.80;66.20;;;;;;10525003;28;20044;-24
2023/05/02 06:47:00;;;;;;;3.05;1.08;;;20.30;66.00;;;;;;10528640;28;20070;-25
2023/05/02 06:52:03;;;;;;;2.53;1.00;;;20.50;65.00;;;;;;10524585;28;20045;-24
2023/05/02 06:57:05;;;;;;;5.03;1.70;;;20.50;64.70;;;;;;10525203;28;20052;-24
2023/05/02 07:02:07;;;;;;;5.55;1.88;;;20.60;62.00;;;;;;10529917;28;20141;-23
2023/05/02 07:07:10;;;;;;;5.43;2.40;;;20.30;65.70;;;;;;10532534;28;20046;-24
2023/05/02 07:12:12;;;;;;;7.13;2.10;;;20.20;65.30;;;;;;10533467;28;20449;-23
2023/05/02 07:17:14;;;;;;;7.05;2.42;;;19.30;70.50;;;;;;10532726;28;20109;-23
2023/05/02 07:22:17;;;;;;;;;;;19.30;66.10;;;;;;10524800;28;20052;-24
2023/05/02 07:27:19;;;;;;;5.20;2.53;;;20.00;61.10;;;;;;10526116;28;20535;-24
2023/05/02 07:32:23;;;;;;;4.60;2.40;;;20.20;64.90;;;;;;10503662;28;20101;-24
2023/05/02 07:37:27;;;;;;;7.80;2.58;;;20.50;64.20;;;;;;10526367;28;20080;-24
2023/05/02 07:42:29;;;;;;;5.25;2.50;;;20.70;63.60;;;;;;10516755;28;20420;-24
2023/05/02 07:47:32;;;;;;;4.85;2.42;;;21.10;61.70;;;;;;10522998;28;20048;-24
2023/05/02 07:52:35;;;;;;;8.35;2.97;;;19.90;67.40;;;;;;10516268;28;20076;-23
2023/05/02 07:57:37;;;;;;;6.93;3.47;;;19.90;67.40;;;;;;10527990;28;20048;-23
2023/05/02 08:02:39;;;;;;;9.15;4.43;;;19.90;65.70;;;;;;10524593;28;20500;-24
2023/05/02 08:07:42;;;;;;;4.57;2.28;;;20.40;65.40;;;;;;10528022;28;20373;-24
2023/05/02 08:12:43;;;;;;;6.72;1.90;;;20.60;63.00;;;;;;10510568;28;20067;-24
2023/05/02 08:17:45;;;;;;;5.07;1.63;;;21.10;61.30;;;;;;10513270;28;20040;-24
2023/05/02 08:22:50;;;;;;;5.93;2.85;;;20.80;61.70;;;;;;10511847;28;20048;-25
2023/05/02 08:27:52;;;;;;;5.15;2.50;;;20.40;64.30;;;;;;10520531;28;20044;-24
2023/05/02 08:32:54;;;;;;;;;;;19.40;65.10;;;;;;10529648;28;20040;-24
2023/05/02 08:37:57;;;;;;;4.73;1.60;;;20.40;63.90;;;;;;10528154;28;19920;-24
2023/05/02 08:42:59;;;;;;;5.97;1.85;;;21.10;61.80;;;;;;10524488;28;20055;-23
2023/05/02 08:48:01;;;;;;;7.88;3.17;;;19.10;60.90;;;;;;10526633;28;20062;-24
2023/05/02 08:53:06;;;;;;;5.15;2.60;;;20.30;61.90;;;;;;10525887;28;20048;-27
2023/05/02 08:58:09;;;;;;;6.50;3.22;;;20.80;58.40;;;;;;10511538;28;20044;-25
2023/05/02 09:03:22;;;;;;;4.97;2.85;;;20.70;62.80;;;;;;10520734;28;20504;-24
2023/05/02 09:08:25;;;;;;;6.30;2.42;;;20.00;65.60;;;;;;10499749;28;20152;-24
2023/05/02 09:13:35;;;;;;;8.38;2.67;;;19.10;55.70;;;;;;10528576;28;20052;-24
2023/05/02 09:18:38;;;;;;;4.00;2.28;;;20.80;63.00;;;;;;10524366;28;20412;-24
2023/05/02 09:23:43;;;;;;;7.32;1.30;;;21.10;61.40;;;;;;10536560;28;20565;-24
2023/05/02 09:28:46;;;;;;;9.52;1.50;;;20.20;62.00;;;;;;10519847;28;20044;-24
2023/05/02 09:33:48;;;;;;;5.15;1.08;;;20.70;62.80;;;;;;10525061;28;20634;-24
2023/05/02 09:38:51;;;;;;;6.63;1.20;;;20.20;62.60;;;;;;10530454;28;20044;-24
2023/05/02 09:43:57;;;;;;;2.50;1.10;;;18.50;51.70;;;;;;10518044;28;20138;-24
2023/05/02 09:48:59;;;;;;;3.95;1.27;;;20.10;66.30;;;;;;10517234;28;20039;-24
2023/05/02 09:54:02;;;;;;;;;;;20.30;64.50;;;;;;10532860;28;20101;-25
2023/05/02 09:59:22;;;;;;;6.18;1.50;;;19.60;67.70;;;;;;10530726;28;19920;-25
2023/05/02 10:04:24;;;;;;;4.43;1.60;;;19.90;64.20;;;;;;10536339;28;20059;-25
2023/05/02 10:09:31;;;;;;;10.57;1.80;;;20.50;60.20;;;;;;10542464;28;20079;-25
2023/05/02 10:14:40;;;;;;;2.80;1.40;;;20.20;57.40;;;;;;10540254;28;20097;-25
2023/05/02 10:19:51;;;;;;;5.45;2.05;;;20.10;59.00;;;;;;10530022;28;20040;-25
2023/05/02 10:24:57;;;;;;;3.15;1.20;;;20.10;65.70;;;;;;10523328;28;20050;-25
2023/05/02 10:30:01;;;;;;;5.32;1.55;;;20.40;60.70;;;;;;10540109;28;20040;-25
2023/05/02 10:35:04;;;;;;;3.70;1.25;;;21.20;62.30;;;;;;10523874;28;20048;-24
2023/05/02 10:40:10;;;;;;;5.10;1.63;;;20.20;55.30;;;;;;10531608;28;20443;-25
2023/05/02 10:45:13;;;;;;;3.67;1.60;;;21.00;62.40;;;;;;10522672;28;20052;-25
2023/05/02 10:50:15;;;;;;;4.68;1.40;;;21.30;56.90;;;;;;10517572;28;20062;-24
2023/05/02 10:55:20;;;;;;;4.20;1.75;;;20.60;63.30;;;;;;10517650;28;20131;-24
2023/05/02 11:00:23;;;;;;;3.85;1.88;;;21.00;63.50;;;;;;10528406;28;20083;-24
2023/05/02 11:05:25;;;;;;;3.38;1.67;;;20.60;62.20;;;;;;10521849;28;20082;-25
2023/05/02 11:10:30;;;;;;;4.25;1.88;;;20.30;60.00;;;;;;10524313;28;20130;-24
2023/05/02 11:15:54;;;;;;;6.15;1.60;;;20.80;62.10;;;;;;10534412;28;20044;-24
2023/05/02 11:21:26;;;;;;;5.10;2.05;;;20.70;59.10;;;;;;10525612;28;20137;-24
2023/05/02 11:26:31;;;;;;;4.23;1.80;;;18.50;74.00;;;;;;10520680;28;20535;-24
2023/05/02 11:32:03;;;;;;;6.40;2.33;;;19.10;66.90;;;;;;10528307;28;20050;-25
2023/05/02 11:37:12;;;;;;;4.50;1.80;;;20.70;62.70;;;;;;10526713;28;20044;-25
2023/05/02 11:42:31;;;;;;;6.95;1.77;;;20.30;63.00;;;;;;10518734;28;20040;-24
2023/05/02 11:47:33;;;;;;;6.63;2.22;;;18.20;48.10;;;;;;10512774;28;20086;-23
2023/05/02 11:52:38;;;;;;;5.82;2.92;;;20.50;63.00;;;;;;10516145;28;20048;-22
2023/05/02 11:57:42;;;;;;;5.88;2.65;;;20.10;67.60;;;;;;10533907;28;20052;-23
2023/05/02 12:02:46;;;;;;;7.45;1.85;;;20.20;68.70;;;;;;10530132;28;20052;-23
2023/05/02 12:07:48;;;;;;;7.15;3.75;;;18.10;71.60;;;;;;10516513;28;20055;-23
2023/05/02 12:13:05;;;;;;;9.57;4.30;;;18.80;71.30;;;;;;10519275;28;20059;-23
2023/05/02 12:18:07;;;;;;;4.40;2.13;;;20.80;68.80;;;;;;10523412;28;20525;-24
2023/05/02 12:23:10;;;;;;;6.93;3.28;;;18.00;48.90;;;;;;10531889;28;20079;-23
2023/05/02 12:28:13;;;;;;;7.35;3.08;;;18.50;55.80;;;;;;10526737;28;20049;-24
2023/05/02 12:33:16;;;;;;;8.75;3.63;;;19.20;72.50;;;;;;10520630;28;20124;-24
2023/05/02 12:38:21;;;;;;;10.90;3.88;;;21.10;61.40;;;;;;10520035;28;20047;-23
2023/05/02 12:43:24;;;;;;;9.38;4.55;;;20.40;68.40;;;;;;10524800;28;20517;-24
2023/05/02 12:48:27;;;;;;;8.52;2.92;;;21.80;65.80;;;;;;10517857;28;20110;-24
2023/05/02 12:53:40;;;;;;;8.50;3.88;;;21.00;65.10;;;;;;10543826;28;20059;-24
2023/05/02 12:58:45;;;;;;;8.57;3.08;;;21.80;65.00;;;;;;10530452;28;20407;-24
2023/05/02 13:03:47;;;;;;;4.18;1.55;;;21.90;63.70;;;;;;10515553;28;20377;-24
2023/05/02 13:08:48;;;;;;;8.27;3.85;;;19.60;54.20;;;;;;10524156;28;20044;-23
2023/05/02 13:13:52;;;;;;;7.43;3.10;;;21.50;69.30;;;;;;10529706;28;20071;-24
2023/05/02 13:18:54;;;;;;;8.02;4.00;;;21.40;68.80;;;;;;10514617;28;20052;-24
2023/05/02 13:23:57;;;;;;;7.32;4.07;;;21.50;70.60;;;;;;10531610;28;20127;-23
2023/05/02 13:29:00;;;;;;;4.65;2.40;;;22.10;71.80;;;;;;10525575;28;20071;-23
2023/05/02 13:34:03;;;;;;;10.23;4.25;;;21.20;57.80;;;;;;10537632;28;20067;-24
2023/05/02 13:39:05;;;;;;;8.00;4.05;;;22.10;73.50;;;;;;10533040;28;20048;-24
2023/05/02 13:44:08;;;;;;;6.57;3.38;;;22.40;72.70;;;;;;10524233;28;20151;-24
2023/05/02 13:49:10;;;;;;;7.53;3.30;;;22.20;72.30;;;;;;10525808;28;20040;-24
2023/05/02 13:54:12;;;;;;;5.88;2.05;;;22.40;73.40;;;;;;10537291;28;20446;-24
2023/05/02 13:59:15;;;;;;;6.28;3.22;;;20.60;74.10;;;;;;10533170;28;20130;-24
2023/05/02 14:04:17;;;;;;;7.38;1.60;;;22.60;60.20;;;;;;10548171;28;20162;-23
2023/05/02 14:09:19;;;;;;;10.00;2.60;;;21.70;45.10;;;;;;10531745;28;20067;-23
2023/05/02 14:14:22;;;;;;;;;;;22.90;54.40;;;;;;10525918;28;20138;-24
2023/05/02 14:19:24;;;;;;;4.07;2.75;;;23.00;60.10;;;;;;10533020;28;20015;-24
2023/05/02 14:24:26;;;;;;;4.45;2.63;;;23.70;68.80;;;;;;10520930;28;20044;-22
2023/05/02 14:29:29;;;;;;;5.10;2.47;;;23.70;69.70;;;;;;10535314;28;20048;-24
2023/05/02 14:34:31;;;;;;;5.18;2.45;;;23.70;63.50;;;;;;10533234;28;20048;-23
2023/05/02 14:39:33;;;;;;;;;;;24.10;60.90;;;;;;10519588;28;20044;-24
2023/05/02 14:44:36;;;;;;;3.58;1.92;;;24.10;63.40;;;;;;10523347;28;19927;-24
2023/05/02 14:49:38;;;;;;;6.82;1.70;;;24.30;69.90;;;;;;10543195;28;20040;-24
2023/05/02 14:54:40;;;;;;;3.30;2.17;;;23.70;51.40;;;;;;10531185;28;20047;-25
2023/05/02 14:59:43;;;;;;;;;;;24.50;71.80;;;;;;10524879;28;20110;-24
2023/05/02 15:04:45;;;;;;;3.13;1.60;;;24.00;45.20;;;;;;10522604;28;19924;-23
2023/05/02 15:09:47;;;;;;;3.92;1.92;;;24.60;69.00;;;;;;10534127;28;20485;-24
2023/05/02 15:14:50;;;;;;;;;;;25.40;72.20;;;;;;10530213;28;20067;-24
2023/05/02 15:19:52;;;;;;;2.58;1.67;;;24.60;65.10;;;;;;10524431;28;20380;-23
2023/05/02 15:24:54;;;;;;;;;;;24.90;65.20;;;;;;10526854;28;20466;-25
2023/05/02 15:29:57;;;;;;;3.58;1.85;;;25.20;59.70;;;;;;10529833;28;19920;-24
2023/05/02 15:34:59;;;;;;;4.90;1.55;;;25.50;58.00;;;;;;10518068;28;20078;-24
2023/05/02 15:40:02;;;;;;;;;;;24.60;51.20;;;;;;10526864;28;20395;-24
2023/05/02 15:45:06;;;;;;;2.33;1.10;;;25.40;54.70;;;;;;10527833;28;19920;-24
2023/05/02 15:50:09;;;;;;;5.00;1.30;;;25.60;53.70;;;;;;10521839;28;20071;-24
2023/05/02 15:55:11;;;;;;;1.85;1.02;;;26.00;56.50;;;;;;10534811;28;20051;-24
2023/05/02 16:00:16;;;;;;;2.42;1.30;;;26.10;53.00;;;;;;10528323;28;20043;-24
2023/05/02 16:05:18;;;;;;;1.60;1.25;;;25.90;57.80;;;;;;10527294;28;20148;-24
2023/05/02 16:10:20;;;;;;;1.80;1.23;;;26.20;59.20;;;;;;10527548;28;20071;-23
2023/05/02 16:15:25;;;;;;;3.40;1.50;;;26.50;59.60;;;;;;10526916;28;20044;-23
2023/05/02 16:20:27;;;;;;;3.72;1.77;;;26.70;63.00;;;;;;10517340;28;20098;-23
2023/05/02 16:25:29;;;;;;;4.63;1.60;;;26.90;67.00;;;;;;10526876;28;20052;-23
2023/05/02 16:30:35;;;;;;;3.50;1.58;;;27.00;66.80;;;;;;10517697;28;20088;-23
2023/05/02 16:35:37;;;;;;;4.05;1.38;;;26.80;65.90;;;;;;10521541;28;20509;-24
2023/05/02 16:40:39;;;;;;;4.07;1.60;;;27.10;63.80;;;;;;10528619;28;20055;-23
2023/05/02 16:45:45;;;;;;;5.38;1.48;;;27.10;62.80;;;;;;10515791;28;20140;-31
2023/05/02 16:50:47;;;;;;;3.63;1.33;;;27.20;64.60;;;;;;10530106;28;20560;-23
2023/05/02 16:55:49;;;;;;;2.33;1.05;;;27.20;60.60;;;;;;10521026;28;20059;-24
2023/05/02 17:00:52;;;;;;;5.85;1.48;;;27.30;60.40;;;;;;10516719;28;20072;-24
2023/05/02 17:05:57;;;;;;;4.40;1.80;;;27.20;60.40;;;;;;10524561;28;20491;-25
2023/05/02 17:11:00;;;;;;;2.92;1.10;;;27.40;63.50;;;;;;10524905;28;20072;-24
2023/05/02 17:16:03;;;;;;;2.75;1.70;;;27.50;62.50;;;;;;10523644;28;20048;-24
2023/05/02 17:21:06;;;;;;;3.78;1.30;;;27.60;65.80;;;;;;10522150;28;20133;-25
2023/05/02 17:26:13;;;;;;;5.13;1.42;;;27.50;68.90;;;;;;10514696;28;20052;-24
2023/05/02 17:31:17;;;;;;;2.38;1.42;;;27.70;65.60;;;;;;10523637;28;20052;-24
2023/05/02 17:36:18;;;;;;;4.95;1.73;;;27.80;65.00;;;;;;10522932;28;20079;-26
2023/05/02 17:41:20;;;;;;;10.00;1.63;;;28.00;66.50;;;;;;10525606;28;20052;-24
2023/05/02 17:46:24;;;;;;;8.95;1.50;;;28.10;65.90;;;;;;10531601;28;20127;-24
2023/05/02 17:51:26;;;;;;;2.00;1.05;;;28.00;67.00;;;;;;10511346;28;20051;-25
2023/05/02 17:56:28;;;;;;;3.30;1.33;;;28.00;67.60;;;;;;10514500;28;20075;-25
2023/05/02 18:01:32;;;;;;;7.10;1.60;;;27.90;64.60;;;;;;10524472;28;20060;-26
2023/05/02 18:06:34;;;;;;;3.50;1.55;;;27.90;63.60;;;;;;10535059;28;20047;-24
2023/05/02 18:11:37;;;;;;;4.07;1.40;;;27.80;60.00;;;;;;10528432;28;20039;-23
2023/05/02 18:16:45;;;;;;;2.65;1.30;;;27.70;61.70;;;;;;10532067;28;20040;-24
2023/05/02 18:21:48;;;;;;;2.85;1.80;;;27.70;60.80;;;;;;10540763;28;20044;-24
2023/05/02 18:26:50;;;;;;;1.83;1.25;;;27.70;61.80;;;;;;10524707;28;20101;-25
2023/05/02 18:31:54;;;;;;;3.90;1.48;;;27.60;60.60;;;;;;10515051;28;20055;-25
2023/05/02 18:37:00;;;;;;;2.50;1.00;;;27.50;59.20;;;;;;10529616;28;20064;-24
2023/05/02 18:42:03;;;;;;;2.80;1.02;;;27.40;58.90;;;;;;10527708;28;20048;-25
2023/05/02 18:47:06;;;;;;;2.70;1.20;;;27.30;59.00;;;;;;10526797;28;20526;-24
2023/05/02 18:52:09;;;;;;;3.85;1.17;;;27.20;57.80;;;;;;10526353;28;20413;-24
2023/05/02 18:57:12;;;;;;;1.65;1.15;;;27.20;58.00;;;;;;10524406;28;20040;-24
2023/05/02 19:02:16;;;;;;;1.90;1.10;;;27.10;57.60;;;;;;10516373;28;20102;-24
2023/05/02 19:07:18;;;;;;;2.90;1.08;;;27.00;57.60;;;;;;10527077;28;20055;-24
2023/05/02 19:12:21;;;;;;;3.67;0.90;;;26.90;57.60;;;;;;10515201;28;20052;-25
2023/05/02 19:17:25;;;;;;;1.60;0.90;;;26.80;57.80;;;;;;10526653;28;20044;-24
2023/05/02 19:22:29;;;;;;;2.50;0.90;;;26.60;58.10;;;;;;10525037;28;20064;-25
2023/05/02 19:27:31;;;;;;;2.22;1.35;;;26.60;58.30;;;;;;10518217;28;20048;-24
2023/05/02 19:32:34;;;;;;;3.40;0.85;;;26.50;58.70;;;;;;10522091;28;20629;-24
2023/05/02 19:37:36;;;;;;;1.90;0.85;;;26.30;57.80;;;;;;10519979;28;20075;-23
2023/05/02 19:42:38;;;;;;;2.63;1.20;;;26.20;57.90;;;;;;10514660;28;20048;-24
2023/05/02 19:47:44;;;;;;;1.75;0.90;;;26.10;57.60;;;;;;10531199;28;20146;-23
2023/05/02 19:52:45;;;;;;;1.35;0.70;;;26.00;57.10;;;;;;10522515;28;20067;-24
2023/05/02 19:57:47;;;;;;;1.20;0.63;;;25.90;56.90;;;;;;10526113;28;20048;-22
2023/05/02 20:02:51;;;;;;;3.10;0.90;;;25.70;57.40;;;;;;10521869;28;20048;-24
2023/05/02 20:07:54;;;;;;;1.10;0.80;;;25.60;57.00;;;;;;10522605;28;20113;-24
2023/05/02 20:12:56;;;;;;;2.60;0.70;;;25.50;56.70;;;;;;10524882;28;20053;-24
2023/05/02 20:18:00;;;;;;;2.60;0.80;;;25.40;56.80;;;;;;10525639;28;20040;-24
2023/05/02 20:23:05;;;;;;;7.32;1.63;;;25.30;56.60;;;;;;10517317;28;20048;-23
2023/05/02 20:28:07;;;;;;;3.00;0.90;;;25.20;56.50;;;;;;10524206;28;20059;-23
2023/05/02 20:33:12;;;;;;;3.00;0.82;;;25.10;56.90;;;;;;10530228;28;20359;-23
2023/05/02 20:38:16;;;;;;;1.55;0.88;;;25.00;56.30;;;;;;10525840;28;20108;-23
2023/05/02 20:43:21;;;;;;;3.15;1.08;;;24.90;56.30;;;;;;10527423;28;20066;-23
2023/05/02 20:48:25;;;;;;;3.72;1.30;;;24.90;56.20;;;;;;10516267;28;20084;-23
2023/05/02 20:53:27;;;;;;;4.40;1.55;;;24.80;55.80;;;;;;10510525;28;20049;-23
2023/05/02 20:58:29;;;;;;;5.47;2.67;;;24.70;55.70;;;;;;10518180;28;20075;-23
2023/05/02 21:03:35;;;;;;;4.70;2.85;;;24.60;55.50;;;;;;10525449;28;20076;-24
2023/05/02 21:08:37;;;;;;;6.45;3.33;;;24.50;55.60;;;;;;10523862;28;20060;-24
2023/05/02 21:13:38;;;;;;;;;;;24.50;55.50;;;;;;10519001;28;20086;-24
2023/05/02 21:18:42;;;;;;;7.10;2.88;;;24.40;55.30;;;;;;10527465;28;20011;-24
2023/05/02 21:23:44;;;;;;;8.30;3.92;;;24.30;55.10;;;;;;10515800;28;20070;-23
2023/05/02 21:28:46;;;;;;;7.95;3.90;;;24.30;55.10;;;;;;10509567;28;20044;-23
2023/05/02 21:33:49;;;;;;;;;;;24.20;55.10;;;;;;10530841;28;20121;-24
2023/05/02 21:38:51;;;;;;;7.50;4.22;;;24.10;55.00;;;;;;10506188;28;20330;-23
2023/05/02 21:43:52;;;;;;;;;;;24.10;55.30;;;;;;10502206;28;20127;-23
2023/05/02 21:48:56;;;;;;;12.48;5.78;;;24.00;55.10;;;;;;10518624;28;20405;-24
2023/05/02 21:53:58;;;;;;;9.98;5.13;;;23.90;55.00;;;;;;10530505;28;20093;-25
2023/05/02 21:58:59;;;;;;;10.55;5.75;;;23.80;55.00;;;;;;10523016;28;20032;-22
2023/05/02 22:04:03;;;;;;;11.65;5.70;;;23.80;54.80;;;;;;10518754;28;20044;-23
2023/05/02 22:09:07;;;;;;;10.05;5.47;;;23.70;54.90;;;;;;10523613;28;20511;-23
2023/05/02 22:14:09;;;;;;;8.10;4.65;;;23.70;55.50;;;;;;10519055;28;20055;-23
2023/05/02 22:19:13;;;;;;;11.10;5.85;;;23.60;54.80;;;;;;10521758;28;20502;-23
2023/05/02 22:24:16;;;;;;;12.52;5.88;;;23.50;54.90;;;;;;10524957;28;20048;-23
2023/05/02 22:29:18;;;;;;;13.68;6.60;;;23.40;55.10;;;;;;10543552;28;20492;-24
2023/05/02 22:34:21;;;;;;;;;;;23.40;54.90;;;;;;10512805;28;20441;-24
2023/05/02 22:39:23;;;;;;;10.40;5.55;;;23.30;55.00;;;;;;10530552;28;20012;-24
2023/05/02 22:44:25;;;;;;;11.90;6.53;;;23.30;55.00;;;;;;10519333;28;20048;-24
2023/05/02 22:49:29;;;;;;;12.52;6.15;;;23.20;55.00;;;;;;10532019;28;20146;-24
2023/05/02 22:54:31;;;;;;;11.98;5.97;;;23.20;55.00;;;;;;10537398;28;20047;-24
2023/05/02 22:59:33;;;;;;;9.63;5.22;;;23.10;55.00;;;;;;10527470;28;20068;-24
2023/05/02 23:04:36;;;;;;;10.77;5.32;;;23.10;55.00;;;;;;10517161;28;20076;-25
2023/05/02 23:09:38;;;;;;;12.07;5.82;;;23.00;55.00;;;;;;10529860;28;20139;-24
2023/05/02 23:14:40;;;;;;;10.13;5.60;;;22.90;55.00;;;;;;10521460;28;20094;-24
2023/05/02 23:19:43;;;;;;;;;;;22.90;55.00;;;;;;10526186;28;20415;-25
2023/05/02 23:24:46;;;;;;;8.85;5.47;;;22.80;55.00;;;;;;10532229;28;19963;-24
2023/05/02 23:29:48;;;;;;;10.88;5.53;;;22.80;55.00;;;;;;10532342;28;20051;-24
2023/05/02 23:34:51;;;;;;;9.48;5.13;;;22.70;54.90;;;;;;10517199;28;20040;-31
2023/05/02 23:39:53;;;;;;;8.77;5.10;;;22.70;55.00;;;;;;10516381;28;20036;-24
2023/05/02 23:44:56;;;;;;;;;;;22.70;55.10;;;;;;10518995;28;20048;-26
2023/05/02 23:49:59;;;;;;;8.75;4.72;;;22.50;54.90;;;;;;10535359;28;19926;-24
2023/05/02 23:55:01;;;;;;;9.00;4.55;;;22.50;54.90;;;;;;10525031;28;20132;-24
